Terminal Aerodrome Forecast
Issued by NWS

Home | Current Version | Previous Version | Text Only | Print | Product List | Glossary On
Versions: 1 2 3 4 5 6 7 8 9 10 11 12 13 14 15
242
FTUS43 KEAX 071120
TAFMKC
TAF
KMKC 071120Z 0712/0812 01006KT P6SM OVC100
     FM071500 34008KT P6SM OVC050
     FM072200 32007KT P6SM OVC100
     FM080200 31010KT P6SM SCT250=

USA.gov is the U.S. government's official web portal to all federal, state and local government web resources and services.